sensor_id;sensor_type;location;lat;lon;timestamp;temperature;humidity
17200;DHT22;8716;52.268;20.968;2022-07-10T00:02:21;16.30;99.90
17200;DHT22;8716;52.268;20.968;2022-07-10T00:04:51;16.30;99.90
17200;DHT22;8716;52.268;20.968;2022-07-10T00:07:19;16.30;99.90
17200;DHT22;8716;52.268;20.968;2022-07-10T00:09:47;16.30;99.90
17200;DHT22;8716;52.268;20.968;2022-07-10T00:12:17;16.30;99.90
17200;DHT22;8716;52.268;20.968;2022-07-10T00:14:45;16.30;99.90
17200;DHT22;8716;52.268;20.968;2022-07-10T00:17:13;16.30;99.90
17200;DHT22;8716;52.268;20.968;2022-07-10T00:19:41;16.30;99.90
17200;DHT22;8716;52.268;20.968;2022-07-10T00:22:09;16.30;99.90
17200;DHT22;8716;52.268;20.968;2022-07-10T00:24:37;16.30;99.90
17200;DHT22;8716;52.268;20.968;2022-07-10T00:27:06;16.30;99.90
17200;DHT22;8716;52.268;20.968;2022-07-10T00:29:35;16.30;99.90
17200;DHT22;8716;52.268;20.968;2022-07-10T00:32:04;16.30;99.90
17200;DHT22;8716;52.268;20.968;2022-07-10T00:34:32;16.30;99.90
17200;DHT22;8716;52.268;20.968;2022-07-10T00:37:00;16.30;99.90
17200;DHT22;8716;52.268;20.968;2022-07-10T00:39:29;16.30;99.90
17200;DHT22;8716;52.268;20.968;2022-07-10T00:42:06;16.30;99.90
17200;DHT22;8716;52.268;20.968;2022-07-10T00:44:36;16.30;99.90
17200;DHT22;8716;52.268;20.968;2022-07-10T00:47:05;16.20;99.90
17200;DHT22;8716;52.268;20.968;2022-07-10T00:49:34;16.20;99.90
17200;DHT22;8716;52.268;20.968;2022-07-10T00:52:06;16.10;99.90
17200;DHT22;8716;52.268;20.968;2022-07-10T00:54:35;16.10;99.90
17200;DHT22;8716;52.268;20.968;2022-07-10T00:57:05;16.10;99.90
17200;DHT22;8716;52.268;20.968;2022-07-10T00:59:36;16.00;99.90
17200;DHT22;8716;52.268;20.968;2022-07-10T01:02:05;15.90;99.90
17200;DHT22;8716;52.268;20.968;2022-07-10T01:04:33;15.90;99.90
17200;DHT22;8716;52.268;20.968;2022-07-10T01:07:02;15.90;99.90
17200;DHT22;8716;52.268;20.968;2022-07-10T01:09:31;15.90;99.90
17200;DHT22;8716;52.268;20.968;2022-07-10T01:12:00;15.80;99.90
17200;DHT22;8716;52.268;20.968;2022-07-10T01:14:29;15.80;99.90
17200;DHT22;8716;52.268;20.968;2022-07-10T01:16:59;15.70;99.90
17200;DHT22;8716;52.268;20.968;2022-07-10T01:19:27;15.70;99.90
17200;DHT22;8716;52.268;20.968;2022-07-10T01:21:56;15.70;99.90
17200;DHT22;8716;52.268;20.968;2022-07-10T01:24:24;15.70;99.90
17200;DHT22;8716;52.268;20.968;2022-07-10T01:26:52;15.60;99.90
17200;DHT22;8716;52.268;20.968;2022-07-10T01:29:22;15.60;99.90
17200;DHT22;8716;52.268;20.968;2022-07-10T01:31:50;15.60;99.90
17200;DHT22;8716;52.268;20.968;2022-07-10T01:34:23;15.60;99.90
17200;DHT22;8716;52.268;20.968;2022-07-10T01:36:51;15.60;99.90
17200;DHT22;8716;52.268;20.968;2022-07-10T01:39:21;15.60;99.90
17200;DHT22;8716;52.268;20.968;2022-07-10T01:41:49;15.60;99.90
17200;DHT22;8716;52.268;20.968;2022-07-10T01:44:17;15.50;99.90
17200;DHT22;8716;52.268;20.968;2022-07-10T01:46:46;15.60;99.90
17200;DHT22;8716;52.268;20.968;2022-07-10T01:49:15;15.60;99.90
17200;DHT22;8716;52.268;20.968;2022-07-10T01:51:43;15.60;99.90
17200;DHT22;8716;52.268;20.968;2022-07-10T01:54:11;15.60;99.90
17200;DHT22;8716;52.268;20.968;2022-07-10T01:56:41;15.60;99.90
17200;DHT22;8716;52.268;20.968;2022-07-10T01:59:09;15.60;99.90
17200;DHT22;8716;52.268;20.968;2022-07-10T02:01:37;15.60;99.90
17200;DHT22;8716;52.268;20.968;2022-07-10T02:04:05;15.60;99.90
17200;DHT22;8716;52.268;20.968;2022-07-10T02:06:51;15.60;99.90
17200;DHT22;8716;52.268;20.968;2022-07-10T02:09:19;15.50;99.90
17200;DHT22;8716;52.268;20.968;2022-07-10T02:11:48;15.60;99.90
17200;DHT22;8716;52.268;20.968;2022-07-10T02:14:16;15.60;99.90
17200;DHT22;8716;52.268;20.968;2022-07-10T02:16:44;15.60;99.90
17200;DHT22;8716;52.268;20.968;2022-07-10T02:19:12;15.60;99.90
17200;DHT22;8716;52.268;20.968;2022-07-10T02:21:40;15.60;99.90
17200;DHT22;8716;52.268;20.968;2022-07-10T02:24:09;15.60;99.90
17200;DHT22;8716;52.268;20.968;2022-07-10T02:26:39;15.60;99.90
17200;DHT22;8716;52.268;20.968;2022-07-10T02:29:08;15.60;99.90
17200;DHT22;8716;52.268;20.968;2022-07-10T02:31:37;15.60;99.90
17200;DHT22;8716;52.268;20.968;2022-07-10T02:34:07;15.60;99.90
17200;DHT22;8716;52.268;20.968;2022-07-10T02:36:38;15.60;99.90
17200;DHT22;8716;52.268;20.968;2022-07-10T02:39:07;15.60;99.90
17200;DHT22;8716;52.268;20.968;2022-07-10T02:41:38;15.60;99.90
17200;DHT22;8716;52.268;20.968;2022-07-10T02:44:09;15.60;99.90
17200;DHT22;8716;52.268;20.968;2022-07-10T02:46:38;15.60;99.90
17200;DHT22;8716;52.268;20.968;2022-07-10T02:49:06;15.60;99.90
17200;DHT22;8716;52.268;20.968;2022-07-10T02:51:37;15.60;99.90
17200;DHT22;8716;52.268;20.968;2022-07-10T02:54:05;15.60;99.90
17200;DHT22;8716;52.268;20.968;2022-07-10T02:56:34;15.60;99.90
17200;DHT22;8716;52.268;20.968;2022-07-10T02:59:03;15.50;99.90
17200;DHT22;8716;52.268;20.968;2022-07-10T03:01:32;15.50;99.90
17200;DHT22;8716;52.268;20.968;2022-07-10T03:04:00;15.60;99.90
17200;DHT22;8716;52.268;20.968;2022-07-10T03:06:30;15.60;99.90
17200;DHT22;8716;52.268;20.968;2022-07-10T03:08:58;15.60;99.90
17200;DHT22;8716;52.268;20.968;2022-07-10T03:11:26;15.60;99.90
17200;DHT22;8716;52.268;20.968;2022-07-10T03:13:54;15.60;99.90
17200;DHT22;8716;52.268;20.968;2022-07-10T03:16:22;15.60;99.90
17200;DHT22;8716;52.268;20.968;2022-07-10T03:18:52;15.60;99.90
17200;DHT22;8716;52.268;20.968;2022-07-10T03:21:20;15.60;99.90
17200;DHT22;8716;52.268;20.968;2022-07-10T03:23:50;15.60;99.90
17200;DHT22;8716;52.268;20.968;2022-07-10T03:26:18;15.60;99.90
17200;DHT22;8716;52.268;20.968;2022-07-10T03:28:46;15.60;99.90
17200;DHT22;8716;52.268;20.968;2022-07-10T03:31:14;15.60;99.90
17200;DHT22;8716;52.268;20.968;2022-07-10T03:33:42;15.60;99.90
17200;DHT22;8716;52.268;20.968;2022-07-10T03:36:12;15.50;99.90
17200;DHT22;8716;52.268;20.968;2022-07-10T03:38:40;15.60;99.90
17200;DHT22;8716;52.268;20.968;2022-07-10T03:41:08;15.50;99.90
17200;DHT22;8716;52.268;20.968;2022-07-10T03:43:37;15.40;99.90
17200;DHT22;8716;52.268;20.968;2022-07-10T03:46:05;15.50;99.90
17200;DHT22;8716;52.268;20.968;2022-07-10T03:48:33;15.50;99.90
17200;DHT22;8716;52.268;20.968;2022-07-10T03:51:02;15.50;99.90
17200;DHT22;8716;52.268;20.968;2022-07-10T03:53:31;15.50;99.90
17200;DHT22;8716;52.268;20.968;2022-07-10T03:55:59;15.60;99.90
17200;DHT22;8716;52.268;20.968;2022-07-10T03:58:28;15.60;99.90
17200;DHT22;8716;52.268;20.968;2022-07-10T04:00:55;15.70;99.90
17200;DHT22;8716;52.268;20.968;2022-07-10T04:03:23;15.70;99.90
17200;DHT22;8716;52.268;20.968;2022-07-10T04:05:51;15.70;99.90
17200;DHT22;8716;52.268;20.968;2022-07-10T04:08:22;15.80;99.90
17200;DHT22;8716;52.268;20.968;2022-07-10T04:10:51;15.80;99.90
17200;DHT22;8716;52.268;20.968;2022-07-10T04:13:19;15.90;99.90
17200;DHT22;8716;52.268;20.968;2022-07-10T04:15:48;15.90;99.90
17200;DHT22;8716;52.268;20.968;2022-07-10T04:18:16;16.00;99.90
17200;DHT22;8716;52.268;20.968;2022-07-10T04:20:44;16.10;99.90
17200;DHT22;8716;52.268;20.968;2022-07-10T04:23:12;16.20;99.90
17200;DHT22;8716;52.268;20.968;2022-07-10T04:25:40;16.40;99.90
17200;DHT22;8716;52.268;20.968;2022-07-10T04:28:09;16.50;99.90
17200;DHT22;8716;52.268;20.968;2022-07-10T04:30:37;16.60;99.90
17200;DHT22;8716;52.268;20.968;2022-07-10T04:33:05;16.60;99.90
17200;DHT22;8716;52.268;20.968;2022-07-10T04:35:34;16.70;99.90
17200;DHT22;8716;52.268;20.968;2022-07-10T04:38:02;16.80;99.90
17200;DHT22;8716;52.268;20.968;2022-07-10T04:40:30;16.90;99.90
17200;DHT22;8716;52.268;20.968;2022-07-10T04:42:58;17.00;99.90
17200;DHT22;8716;52.268;20.968;2022-07-10T04:45:28;17.20;99.90
17200;DHT22;8716;52.268;20.968;2022-07-10T04:47:57;17.30;99.90
17200;DHT22;8716;52.268;20.968;2022-07-10T04:50:25;17.50;99.90
17200;DHT22;8716;52.268;20.968;2022-07-10T04:52:53;17.50;99.90
17200;DHT22;8716;52.268;20.968;2022-07-10T04:55:21;17.60;99.90
17200;DHT22;8716;52.268;20.968;2022-07-10T04:57:50;17.80;99.90
17200;DHT22;8716;52.268;20.968;2022-07-10T05:00:18;18.20;99.90
17200;DHT22;8716;52.268;20.968;2022-07-10T05:02:48;18.80;99.90
17200;DHT22;8716;52.268;20.968;2022-07-10T05:05:16;19.30;99.90
17200;DHT22;8716;52.268;20.968;2022-07-10T05:07:44;19.60;99.90
17200;DHT22;8716;52.268;20.968;2022-07-10T05:10:12;19.70;99.90
17200;DHT22;8716;52.268;20.968;2022-07-10T05:12:40;19.80;99.90
17200;DHT22;8716;52.268;20.968;2022-07-10T05:15:09;19.90;99.90
17200;DHT22;8716;52.268;20.968;2022-07-10T05:17:37;20.00;99.90
17200;DHT22;8716;52.268;20.968;2022-07-10T05:20:08;20.40;99.90
17200;DHT22;8716;52.268;20.968;2022-07-10T05:22:36;21.20;99.90
17200;DHT22;8716;52.268;20.968;2022-07-10T05:25:04;21.90;99.90
17200;DHT22;8716;52.268;20.968;2022-07-10T05:27:33;22.10;99.90
17200;DHT22;8716;52.268;20.968;2022-07-10T05:30:01;22.10;99.90
17200;DHT22;8716;52.268;20.968;2022-07-10T05:32:29;21.80;99.90
17200;DHT22;8716;52.268;20.968;2022-07-10T05:34:57;21.70;99.90
17200;DHT22;8716;52.268;20.968;2022-07-10T05:37:27;21.40;99.90
17200;DHT22;8716;52.268;20.968;2022-07-10T05:39:55;21.20;99.90
17200;DHT22;8716;52.268;20.968;2022-07-10T05:42:24;21.20;99.90
17200;DHT22;8716;52.268;20.968;2022-07-10T05:44:52;21.20;99.90
17200;DHT22;8716;52.268;20.968;2022-07-10T05:47:20;21.40;99.90
17200;DHT22;8716;52.268;20.968;2022-07-10T05:49:48;21.60;99.90
17200;DHT22;8716;52.268;20.968;2022-07-10T05:52:16;21.70;99.90
17200;DHT22;8716;52.268;20.968;2022-07-10T05:54:46;21.60;99.90
17200;DHT22;8716;52.268;20.968;2022-07-10T05:57:17;21.60;99.90
17200;DHT22;8716;52.268;20.968;2022-07-10T05:59:45;21.50;99.90
17200;DHT22;8716;52.268;20.968;2022-07-10T06:02:13;21.50;99.90
17200;DHT22;8716;52.268;20.968;2022-07-10T06:04:48;21.40;99.90
17200;DHT22;8716;52.268;20.968;2022-07-10T06:07:16;21.40;99.90
17200;DHT22;8716;52.268;20.968;2022-07-10T06:09:46;21.20;99.90
17200;DHT22;8716;52.268;20.968;2022-07-10T06:12:14;21.20;99.90
17200;DHT22;8716;52.268;20.968;2022-07-10T06:14:42;21.10;99.90
17200;DHT22;8716;52.268;20.968;2022-07-10T06:17:10;21.10;99.90
17200;DHT22;8716;52.268;20.968;2022-07-10T06:19:40;21.20;99.90
17200;DHT22;8716;52.268;20.968;2022-07-10T06:22:11;21.30;99.90
17200;DHT22;8716;52.268;20.968;2022-07-10T06:24:59;21.30;99.90
17200;DHT22;8716;52.268;20.968;2022-07-10T06:27:27;21.30;99.90
17200;DHT22;8716;52.268;20.968;2022-07-10T06:29:56;21.30;99.90
17200;DHT22;8716;52.268;20.968;2022-07-10T06:32:25;21.30;99.90
17200;DHT22;8716;52.268;20.968;2022-07-10T06:34:54;21.20;99.90
17200;DHT22;8716;52.268;20.968;2022-07-10T06:37:22;21.20;99.90
17200;DHT22;8716;52.268;20.968;2022-07-10T06:39:51;21.20;99.90
17200;DHT22;8716;52.268;20.968;2022-07-10T06:42:20;21.20;99.90
17200;DHT22;8716;52.268;20.968;2022-07-10T06:44:50;21.10;99.90
17200;DHT22;8716;52.268;20.968;2022-07-10T06:47:19;21.20;99.90
17200;DHT22;8716;52.268;20.968;2022-07-10T06:50:09;21.30;99.90
17200;DHT22;8716;52.268;20.968;2022-07-10T06:52:37;21.50;99.90
17200;DHT22;8716;52.268;20.968;2022-07-10T06:55:06;21.80;99.90
17200;DHT22;8716;52.268;20.968;2022-07-10T06:57:35;22.00;99.90
17200;DHT22;8716;52.268;20.968;2022-07-10T07:00:06;22.10;99.90
17200;DHT22;8716;52.268;20.968;2022-07-10T07:02:38;22.20;99.90
17200;DHT22;8716;52.268;20.968;2022-07-10T07:05:09;22.20;99.90
17200;DHT22;8716;52.268;20.968;2022-07-10T07:07:37;22.10;99.90
17200;DHT22;8716;52.268;20.968;2022-07-10T07:10:09;22.10;99.90
17200;DHT22;8716;52.268;20.968;2022-07-10T07:12:39;22.10;99.90
17200;DHT22;8716;52.268;20.968;2022-07-10T07:15:08;22.20;99.90
17200;DHT22;8716;52.268;20.968;2022-07-10T07:17:39;22.10;99.90
17200;DHT22;8716;52.268;20.968;2022-07-10T07:20:25;22.10;99.90
17200;DHT22;8716;52.268;20.968;2022-07-10T07:23:10;22.10;99.90
17200;DHT22;8716;52.268;20.968;2022-07-10T07:25:39;22.30;99.90
17200;DHT22;8716;52.268;20.968;2022-07-10T07:28:10;22.40;99.90
17200;DHT22;8716;52.268;20.968;2022-07-10T07:30:38;22.50;99.90
17200;DHT22;8716;52.268;20.968;2022-07-10T07:33:06;22.60;99.90
17200;DHT22;8716;52.268;20.968;2022-07-10T07:35:34;22.70;99.90
17200;DHT22;8716;52.268;20.968;2022-07-10T07:38:03;22.90;99.90
17200;DHT22;8716;52.268;20.968;2022-07-10T07:40:32;23.00;99.90
17200;DHT22;8716;52.268;20.968;2022-07-10T07:43:00;23.10;99.90
17200;DHT22;8716;52.268;20.968;2022-07-10T07:45:30;23.10;99.90
17200;DHT22;8716;52.268;20.968;2022-07-10T07:47:59;23.20;99.90
17200;DHT22;8716;52.268;20.968;2022-07-10T07:50:29;23.30;99.90
17200;DHT22;8716;52.268;20.968;2022-07-10T07:52:59;23.30;99.90
17200;DHT22;8716;52.268;20.968;2022-07-10T07:55:28;23.30;99.90
17200;DHT22;8716;52.268;20.968;2022-07-10T07:57:57;23.40;99.90
17200;DHT22;8716;52.268;20.968;2022-07-10T08:00:27;23.30;99.90
17200;DHT22;8716;52.268;20.968;2022-07-10T08:02:57;23.10;99.90
17200;DHT22;8716;52.268;20.968;2022-07-10T08:05:28;22.90;99.90
17200;DHT22;8716;52.268;20.968;2022-07-10T08:07:57;22.70;99.90
17200;DHT22;8716;52.268;20.968;2022-07-10T08:10:31;22.60;99.90
17200;DHT22;8716;52.268;20.968;2022-07-10T08:12:59;22.60;99.90
17200;DHT22;8716;52.268;20.968;2022-07-10T08:15:27;23.20;99.90
17200;DHT22;8716;52.268;20.968;2022-07-10T08:17:58;24.00;99.90
17200;DHT22;8716;52.268;20.968;2022-07-10T08:20:30;24.20;99.90
17200;DHT22;8716;52.268;20.968;2022-07-10T08:22:58;24.30;99.90
17200;DHT22;8716;52.268;20.968;2022-07-10T08:25:27;24.20;99.90
17200;DHT22;8716;52.268;20.968;2022-07-10T08:28:00;24.00;99.90
17200;DHT22;8716;52.268;20.968;2022-07-10T08:30:29;23.80;99.90
17200;DHT22;8716;52.268;20.968;2022-07-10T08:32:58;23.60;99.90
17200;DHT22;8716;52.268;20.968;2022-07-10T08:35:27;23.30;99.90
17200;DHT22;8716;52.268;20.968;2022-07-10T08:37:55;22.90;99.90
17200;DHT22;8716;52.268;20.968;2022-07-10T08:40:26;22.60;99.90
17200;DHT22;8716;52.268;20.968;2022-07-10T08:42:59;22.40;99.90
17200;DHT22;8716;52.268;20.968;2022-07-10T08:45:30;22.60;99.90
17200;DHT22;8716;52.268;20.968;2022-07-10T08:48:02;22.80;99.90
17200;DHT22;8716;52.268;20.968;2022-07-10T08:50:33;22.70;99.90
17200;DHT22;8716;52.268;20.968;2022-07-10T08:53:08;23.20;99.90
17200;DHT22;8716;52.268;20.968;2022-07-10T08:55:37;24.40;99.90
17200;DHT22;8716;52.268;20.968;2022-07-10T08:58:05;25.60;99.90
17200;DHT22;8716;52.268;20.968;2022-07-10T09:00:35;27.00;99.90
17200;DHT22;8716;52.268;20.968;2022-07-10T09:03:05;28.20;99.90
17200;DHT22;8716;52.268;20.968;2022-07-10T09:05:33;28.90;98.50
17200;DHT22;8716;52.268;20.968;2022-07-10T09:08:28;29.80;96.60
17200;DHT22;8716;52.268;20.968;2022-07-10T09:11:23;30.40;94.30
17200;DHT22;8716;52.268;20.968;2022-07-10T09:13:56;31.60;90.50
17200;DHT22;8716;52.268;20.968;2022-07-10T09:16:26;32.20;84.10
17200;DHT22;8716;52.268;20.968;2022-07-10T09:18:56;32.40;80.30
17200;DHT22;8716;52.268;20.968;2022-07-10T09:21:25;31.80;76.60
17200;DHT22;8716;52.268;20.968;2022-07-10T09:23:59;31.10;75.90
17200;DHT22;8716;52.268;20.968;2022-07-10T09:26:32;30.60;74.40
17200;DHT22;8716;52.268;20.968;2022-07-10T09:29:08;30.30;76.80
17200;DHT22;8716;52.268;20.968;2022-07-10T09:31:49;30.30;77.60
17200;DHT22;8716;52.268;20.968;2022-07-10T09:34:39;30.00;75.80
17200;DHT22;8716;52.268;20.968;2022-07-10T09:37:21;29.40;75.40
17200;DHT22;8716;52.268;20.968;2022-07-10T09:39:55;28.60;77.80
17200;DHT22;8716;52.268;20.968;2022-07-10T09:42:28;27.90;78.80
17200;DHT22;8716;52.268;20.968;2022-07-10T09:45:19;27.20;79.70
17200;DHT22;8716;52.268;20.968;2022-07-10T09:47:55;26.60;82.50
17200;DHT22;8716;52.268;20.968;2022-07-10T09:50:27;26.00;83.50
17200;DHT22;8716;52.268;20.968;2022-07-10T09:52:57;25.40;83.20
17200;DHT22;8716;52.268;20.968;2022-07-10T09:55:26;24.80;82.50
17200;DHT22;8716;52.268;20.968;2022-07-10T09:57:57;24.30;84.10
17200;DHT22;8716;52.268;20.968;2022-07-10T10:00:27;23.90;85.60
17200;DHT22;8716;52.268;20.968;2022-07-10T10:02:57;23.60;86.60
17200;DHT22;8716;52.268;20.968;2022-07-10T10:05:37;23.30;87.40
17200;DHT22;8716;52.268;20.968;2022-07-10T10:08:11;23.10;89.40
17200;DHT22;8716;52.268;20.968;2022-07-10T10:10:48;23.10;91.00
17200;DHT22;8716;52.268;20.968;2022-07-10T10:13:17;23.20;90.10
17200;DHT22;8716;52.268;20.968;2022-07-10T10:15:47;23.40;88.10
17200;DHT22;8716;52.268;20.968;2022-07-10T10:18:17;23.60;89.10
17200;DHT22;8716;52.268;20.968;2022-07-10T10:20:49;23.90;89.60
17200;DHT22;8716;52.268;20.968;2022-07-10T10:23:19;24.30;89.50
17200;DHT22;8716;52.268;20.968;2022-07-10T10:25:52;24.60;89.30
17200;DHT22;8716;52.268;20.968;2022-07-10T10:28:22;25.00;89.30
17200;DHT22;8716;52.268;20.968;2022-07-10T10:30:53;25.20;85.60
17200;DHT22;8716;52.268;20.968;2022-07-10T10:33:42;25.10;84.40
17200;DHT22;8716;52.268;20.968;2022-07-10T10:36:14;25.10;82.90
17200;DHT22;8716;52.268;20.968;2022-07-10T10:39:00;25.30;83.40
17200;DHT22;8716;52.268;20.968;2022-07-10T10:41:30;25.50;83.70
17200;DHT22;8716;52.268;20.968;2022-07-10T10:44:21;25.80;82.30
17200;DHT22;8716;52.268;20.968;2022-07-10T10:46:58;25.90;82.90
17200;DHT22;8716;52.268;20.968;2022-07-10T10:49:52;25.80;83.90
17200;DHT22;8716;52.268;20.968;2022-07-10T10:52:22;26.00;85.30
17200;DHT22;8716;52.268;20.968;2022-07-10T10:55:05;26.10;85.60
17200;DHT22;8716;52.268;20.968;2022-07-10T10:57:37;26.20;86.00
17200;DHT22;8716;52.268;20.968;2022-07-10T11:00:12;26.20;86.10
17200;DHT22;8716;52.268;20.968;2022-07-10T11:02:42;26.20;85.80
17200;DHT22;8716;52.268;20.968;2022-07-10T11:05:39;26.30;86.00
17200;DHT22;8716;52.268;20.968;2022-07-10T11:08:12;26.40;86.30
17200;DHT22;8716;52.268;20.968;2022-07-10T11:10:42;26.50;86.00
17200;DHT22;8716;52.268;20.968;2022-07-10T11:13:15;26.60;84.90
17200;DHT22;8716;52.268;20.968;2022-07-10T11:15:45;26.60;83.00
17200;DHT22;8716;52.268;20.968;2022-07-10T11:18:14;26.70;82.20
17200;DHT22;8716;52.268;20.968;2022-07-10T11:20:44;26.50;78.80
17200;DHT22;8716;52.268;20.968;2022-07-10T11:26:24;26.00;78.80
17200;DHT22;8716;52.268;20.968;2022-07-10T11:28:54;25.90;78.80
17200;DHT22;8716;52.268;20.968;2022-07-10T11:31:24;25.70;78.70
17200;DHT22;8716;52.268;20.968;2022-07-10T11:33:54;25.50;78.40
17200;DHT22;8716;52.268;20.968;2022-07-10T11:36:23;25.40;79.20
17200;DHT22;8716;52.268;20.968;2022-07-10T11:38:58;25.30;80.90
17200;DHT22;8716;52.268;20.968;2022-07-10T11:41:27;25.40;82.20
17200;DHT22;8716;52.268;20.968;2022-07-10T11:43:59;25.40;82.00
17200;DHT22;8716;52.268;20.968;2022-07-10T11:46:29;25.60;82.50
17200;DHT22;8716;52.268;20.968;2022-07-10T11:49:02;25.80;82.70
17200;DHT22;8716;52.268;20.968;2022-07-10T11:51:33;25.80;82.60
17200;DHT22;8716;52.268;20.968;2022-07-10T11:54:06;25.70;82.80
17200;DHT22;8716;52.268;20.968;2022-07-10T11:56:39;25.50;83.70
17200;DHT22;8716;52.268;20.968;2022-07-10T11:59:09;25.50;84.90
17200;DHT22;8716;52.268;20.968;2022-07-10T12:01:41;25.50;83.40
17200;DHT22;8716;52.268;20.968;2022-07-10T12:04:11;25.30;83.90
17200;DHT22;8716;52.268;20.968;2022-07-10T12:06:41;25.10;82.40
17200;DHT22;8716;52.268;20.968;2022-07-10T12:09:12;24.80;82.80
17200;DHT22;8716;52.268;20.968;2022-07-10T12:11:41;24.70;84.60
17200;DHT22;8716;52.268;20.968;2022-07-10T12:14:14;24.70;85.30
17200;DHT22;8716;52.268;20.968;2022-07-10T12:16:45;24.60;84.40
17200;DHT22;8716;52.268;20.968;2022-07-10T12:19:17;24.40;83.90
17200;DHT22;8716;52.268;20.968;2022-07-10T12:21:46;24.20;84.20
17200;DHT22;8716;52.268;20.968;2022-07-10T12:24:21;24.00;85.30
17200;DHT22;8716;52.268;20.968;2022-07-10T12:26:51;24.00;85.40
17200;DHT22;8716;52.268;20.968;2022-07-10T12:29:20;23.90;85.80
17200;DHT22;8716;52.268;20.968;2022-07-10T12:31:50;24.00;88.00
17200;DHT22;8716;52.268;20.968;2022-07-10T12:34:33;23.90;89.30
17200;DHT22;8716;52.268;20.968;2022-07-10T12:37:07;23.90;90.00
17200;DHT22;8716;52.268;20.968;2022-07-10T12:39:46;23.80;90.90
17200;DHT22;8716;52.268;20.968;2022-07-10T12:42:24;23.60;93.20
17200;DHT22;8716;52.268;20.968;2022-07-10T12:44:52;23.40;95.40
17200;DHT22;8716;52.268;20.968;2022-07-10T12:47:21;23.10;97.70
17200;DHT22;8716;52.268;20.968;2022-07-10T12:49:54;22.70;99.90
17200;DHT22;8716;52.268;20.968;2022-07-10T12:52:24;22.30;99.90
17200;DHT22;8716;52.268;20.968;2022-07-10T12:55:12;22.00;99.90
17200;DHT22;8716;52.268;20.968;2022-07-10T12:57:46;21.80;99.90
17200;DHT22;8716;52.268;20.968;2022-07-10T13:00:15;21.60;99.90
17200;DHT22;8716;52.268;20.968;2022-07-10T13:02:45;21.60;99.90
17200;DHT22;8716;52.268;20.968;2022-07-10T13:05:31;21.60;99.90
17200;DHT22;8716;52.268;20.968;2022-07-10T13:08:07;21.70;99.90
17200;DHT22;8716;52.268;20.968;2022-07-10T13:10:39;21.80;99.90
17200;DHT22;8716;52.268;20.968;2022-07-10T13:13:08;21.90;99.90
17200;DHT22;8716;52.268;20.968;2022-07-10T13:15:36;22.00;99.90
17200;DHT22;8716;52.268;20.968;2022-07-10T13:18:07;22.20;99.90
17200;DHT22;8716;52.268;20.968;2022-07-10T13:20:36;22.00;99.90
17200;DHT22;8716;52.268;20.968;2022-07-10T13:23:06;22.00;99.90
17200;DHT22;8716;52.268;20.968;2022-07-10T13:25:36;21.80;99.90
17200;DHT22;8716;52.268;20.968;2022-07-10T13:28:06;21.60;99.90
17200;DHT22;8716;52.268;20.968;2022-07-10T13:30:35;21.40;99.90
17200;DHT22;8716;52.268;20.968;2022-07-10T13:33:05;21.20;99.90
17200;DHT22;8716;52.268;20.968;2022-07-10T13:35:34;20.70;99.90
17200;DHT22;8716;52.268;20.968;2022-07-10T13:38:04;20.30;99.90
17200;DHT22;8716;52.268;20.968;2022-07-10T13:40:37;20.00;99.90
17200;DHT22;8716;52.268;20.968;2022-07-10T13:43:07;19.80;99.90
17200;DHT22;8716;52.268;20.968;2022-07-10T13:45:36;19.60;99.90
17200;DHT22;8716;52.268;20.968;2022-07-10T13:48:10;19.40;99.90
17200;DHT22;8716;52.268;20.968;2022-07-10T13:50:39;19.20;99.90
17200;DHT22;8716;52.268;20.968;2022-07-10T13:53:07;19.20;99.90
17200;DHT22;8716;52.268;20.968;2022-07-10T13:55:35;19.20;99.90
17200;DHT22;8716;52.268;20.968;2022-07-10T13:58:03;19.20;99.90
17200;DHT22;8716;52.268;20.968;2022-07-10T14:00:33;19.30;99.90
17200;DHT22;8716;52.268;20.968;2022-07-10T14:03:04;19.40;99.90
17200;DHT22;8716;52.268;20.968;2022-07-10T14:05:32;19.50;99.90
17200;DHT22;8716;52.268;20.968;2022-07-10T14:08:00;19.50;99.90
17200;DHT22;8716;52.268;20.968;2022-07-10T14:10:29;19.60;99.90
17200;DHT22;8716;52.268;20.968;2022-07-10T14:12:57;19.70;99.90
17200;DHT22;8716;52.268;20.968;2022-07-10T14:15:26;19.70;99.90
17200;DHT22;8716;52.268;20.968;2022-07-10T14:17:55;19.80;99.90
17200;DHT22;8716;52.268;20.968;2022-07-10T14:20:24;19.80;99.90
17200;DHT22;8716;52.268;20.968;2022-07-10T14:22:52;19.80;99.90
17200;DHT22;8716;52.268;20.968;2022-07-10T14:25:23;19.90;99.90
17200;DHT22;8716;52.268;20.968;2022-07-10T14:27:53;20.00;99.90
17200;DHT22;8716;52.268;20.968;2022-07-10T14:30:21;20.10;99.90
17200;DHT22;8716;52.268;20.968;2022-07-10T14:32:49;20.20;99.90
17200;DHT22;8716;52.268;20.968;2022-07-10T14:35:19;20.30;99.90
17200;DHT22;8716;52.268;20.968;2022-07-10T14:37:47;20.40;99.90
17200;DHT22;8716;52.268;20.968;2022-07-10T14:40:15;20.60;99.90
17200;DHT22;8716;52.268;20.968;2022-07-10T14:42:43;20.60;99.90
17200;DHT22;8716;52.268;20.968;2022-07-10T14:45:18;20.70;99.90
17200;DHT22;8716;52.268;20.968;2022-07-10T14:48:07;20.60;99.90
17200;DHT22;8716;52.268;20.968;2022-07-10T14:50:36;20.60;99.90
17200;DHT22;8716;52.268;20.968;2022-07-10T14:53:06;20.60;99.90
17200;DHT22;8716;52.268;20.968;2022-07-10T14:55:35;20.50;99.90
17200;DHT22;8716;52.268;20.968;2022-07-10T14:58:03;20.40;99.90
17200;DHT22;8716;52.268;20.968;2022-07-10T15:00:31;20.40;99.90
17200;DHT22;8716;52.268;20.968;2022-07-10T15:03:00;20.30;99.90
17200;DHT22;8716;52.268;20.968;2022-07-10T15:05:30;20.30;99.90
17200;DHT22;8716;52.268;20.968;2022-07-10T15:08:01;20.30;99.90
17200;DHT22;8716;52.268;20.968;2022-07-10T15:10:30;20.30;99.90
17200;DHT22;8716;52.268;20.968;2022-07-10T15:12:59;20.20;99.90
17200;DHT22;8716;52.268;20.968;2022-07-10T15:15:31;20.20;99.90
17200;DHT22;8716;52.268;20.968;2022-07-10T15:18:00;20.20;99.90
17200;DHT22;8716;52.268;20.968;2022-07-10T15:20:29;20.10;99.90
17200;DHT22;8716;52.268;20.968;2022-07-10T15:22:57;19.80;99.90
17200;DHT22;8716;52.268;20.968;2022-07-10T15:25:27;19.70;99.90
17200;DHT22;8716;52.268;20.968;2022-07-10T15:27:56;19.60;99.90
17200;DHT22;8716;52.268;20.968;2022-07-10T15:30:24;19.60;99.90
17200;DHT22;8716;52.268;20.968;2022-07-10T15:32:52;19.50;99.90
17200;DHT22;8716;52.268;20.968;2022-07-10T15:35:21;19.40;99.90
17200;DHT22;8716;52.268;20.968;2022-07-10T15:37:50;19.50;99.90
17200;DHT22;8716;52.268;20.968;2022-07-10T15:40:27;19.60;99.90
17200;DHT22;8716;52.268;20.968;2022-07-10T15:42:55;19.60;99.90
17200;DHT22;8716;52.268;20.968;2022-07-10T15:45:24;19.70;99.90
17200;DHT22;8716;52.268;20.968;2022-07-10T15:47:52;19.70;99.90
17200;DHT22;8716;52.268;20.968;2022-07-10T15:50:23;19.60;99.90
17200;DHT22;8716;52.268;20.968;2022-07-10T15:52:59;19.60;99.90
17200;DHT22;8716;52.268;20.968;2022-07-10T15:55:29;19.60;99.90